Time;durP1;ratioP1;P1;durP2;ratioP2;P2;SDS_P1;SDS_P2;PMS_P1;PMS_P2;Temp;Humidity;BMP_temperature;BMP_pressure;BME280_temperature;BME280_humidity;BME280_pressure;Samples;Min_cycle;Max_cycle;Signal;HPM_P1;HPM_P2
2023/10/09 00:05:02;;;;;;;3.42;2.03;;;17.80;94.80;;;;;;10500462;28;20487;-66
2023/10/09 00:10:12;;;;;;;3.77;1.80;;;18.10;94.90;;;;;;10500429;28;20404;-66
2023/10/09 00:15:13;;;;;;;4.93;2.05;;;17.70;94.80;;;;;;10495477;28;20409;-65
2023/10/09 00:20:30;;;;;;;3.00;1.80;;;17.70;94.80;;;;;;10490056;28;20429;-66
2023/10/09 00:25:36;;;;;;;5.20;2.17;;;17.70;94.90;;;;;;10493637;28;20395;-65
2023/10/09 00:30:41;;;;;;;4.32;2.25;;;17.80;94.90;;;;;;10493505;28;20470;-66
2023/10/09 00:35:54;;;;;;;5.28;2.50;;;17.70;94.90;;;;;;10502392;28;21105;-65
2023/10/09 00:41:04;;;;;;;5.20;2.70;;;17.70;95.00;;;;;;10497036;28;20454;-66
2023/10/09 00:46:23;;;;;;;4.88;2.50;;;17.70;95.10;;;;;;10500373;28;20395;-66
2023/10/09 00:51:25;;;;;;;3.37;2.43;;;17.70;95.10;;;;;;10500178;28;20482;-67
2023/10/09 01:01:39;;;;;;;5.38;2.90;;;17.70;95.20;;;;;;10498741;28;20905;-66
2023/10/09 01:06:47;;;;;;;5.17;2.80;;;17.70;95.20;;;;;;10503208;28;20400;-67
2023/10/09 01:11:48;;;;;;;5.45;3.40;;;17.70;95.30;;;;;;10491330;28;20403;-66
2023/10/09 01:16:53;;;;;;;6.45;3.47;;;17.70;95.40;;;;;;10495408;28;20405;-66
2023/10/09 01:21:54;;;;;;;7.13;3.53;;;17.70;95.40;;;;;;10497022;28;20414;-66
2023/10/09 01:26:57;;;;;;;8.23;3.88;;;17.70;95.50;;;;;;10488601;28;20405;-66
2023/10/09 01:32:01;;;;;;;6.07;3.60;;;17.60;95.50;;;;;;10496770;28;20549;-66
2023/10/09 01:37:05;;;;;;;6.03;3.70;;;17.60;95.50;;;;;;10503760;28;20416;-66
2023/10/09 01:42:44;;;;;;;8.02;4.00;;;17.60;95.60;;;;;;10558553;27;20422;-65
2023/10/09 01:47:51;;;;;;;8.20;4.37;;;17.60;95.60;;;;;;10544791;28;20459;-65
2023/10/09 01:52:52;;;;;;;8.70;4.50;;;17.60;95.70;;;;;;10526554;28;20433;-64
2023/10/09 01:57:53;;;;;;;7.40;4.30;;;17.60;95.70;;;;;;10516581;28;20415;-64
2023/10/09 02:02:53;;;;;;;8.83;4.53;;;17.60;95.80;;;;;;10520889;28;20918;-64
2023/10/09 02:07:54;;;;;;;8.52;4.80;;;17.60;95.80;;;;;;10513482;28;20897;-65
2023/10/09 02:13:09;;;;;;;8.35;4.65;;;17.60;95.90;;;;;;10525039;28;20936;-66
2023/10/09 02:28:58;;;;;;;10.07;5.90;;;17.50;96.30;;;;;;10519133;28;20411;-65
2023/10/09 02:34:00;;;;;;;11.13;5.60;;;17.50;96.00;;;;;;10517595;28;20444;-65
2023/10/09 02:39:00;;;;;;;9.25;5.60;;;17.50;96.10;;;;;;10509041;28;20412;-65
2023/10/09 02:44:10;;;;;;;9.30;5.63;;;17.50;96.10;;;;;;10514059;28;20785;-66
2023/10/09 02:49:15;;;;;;;11.50;5.45;;;17.50;96.20;;;;;;10517361;28;20777;-64
2023/10/09 02:59:23;;;;;;;10.40;6.00;;;17.50;96.20;;;;;;10478578;28;20447;-65
2023/10/09 03:04:24;;;;;;;11.18;6.45;;;17.50;96.20;;;;;;10485813;28;20398;-65
2023/10/09 03:09:29;;;;;;;11.67;6.50;;;17.50;96.30;;;;;;10485793;28;20777;-64
2023/10/09 03:14:31;;;;;;;11.45;6.72;;;17.50;96.30;;;;;;10494695;28;20417;-65
2023/10/09 03:19:37;;;;;;;11.82;6.03;;;17.50;96.40;;;;;;10475931;28;20409;-63
2023/10/09 03:24:41;;;;;;;13.33;6.30;;;17.50;96.40;;;;;;10472354;28;20410;-64
2023/10/09 03:29:42;;;;;;;11.00;6.60;;;17.50;96.40;;;;;;10470815;28;20403;-64
2023/10/09 03:34:43;;;;;;;11.70;6.77;;;17.50;96.40;;;;;;10466911;28;20403;-65
2023/10/09 03:39:47;;;;;;;11.15;6.60;;;17.50;96.40;;;;;;10503722;28;20471;-66
2023/10/09 03:44:53;;;;;;;10.80;6.50;;;17.50;96.50;;;;;;10514403;28;20461;-64
2023/10/09 03:49:54;;;;;;;10.85;7.10;;;17.50;96.50;;;;;;10523397;28;20421;-65
2023/10/09 03:54:54;;;;;;;11.30;6.73;;;17.50;96.60;;;;;;10531557;28;20723;-65
2023/10/09 03:59:56;;;;;;;12.47;7.07;;;17.50;96.50;;;;;;10517181;28;20479;-63
2023/10/09 04:04:57;;;;;;;12.10;7.10;;;17.50;96.60;;;;;;10526165;28;20445;-65
2023/10/09 04:10:32;;;;;;;11.87;7.13;;;17.50;96.60;;;;;;10530458;28;20402;-64
2023/10/09 04:15:22;;;;;;;11.52;6.93;;;17.50;96.60;;;;;;10531893;28;20406;-64
2023/10/09 04:25:28;;;;;;;10.93;7.00;;;17.50;96.60;;;;;;10532168;28;20547;-64
2023/10/09 04:30:29;;;;;;;10.97;6.57;;;18.50;96.80;;;;;;10533755;28;20402;-65
2023/10/09 04:35:33;;;;;;;13.23;6.93;;;17.50;96.60;;;;;;10526916;28;20405;-65
2023/10/09 04:46:26;;;;;;;12.20;6.85;;;17.50;96.60;;;;;;10527261;28;20400;-63
2023/10/09 04:51:36;;;;;;;10.85;6.53;;;17.50;96.60;;;;;;10523793;28;20528;-65
2023/10/09 04:56:32;;;;;;;11.30;6.78;;;17.50;96.60;;;;;;10535250;28;20427;-65
2023/10/09 05:01:46;;;;;;;10.10;6.90;;;17.50;96.70;;;;;;10526714;28;20410;-65
2023/10/09 05:06:55;;;;;;;11.13;6.70;;;17.60;96.70;;;;;;10533179;28;20439;-66
2023/10/09 05:12:09;;;;;;;10.80;6.80;;;17.60;96.70;;;;;;10525825;28;20482;-63
2023/10/09 05:17:15;;;;;;;10.40;6.85;;;17.60;96.70;;;;;;10534549;28;20403;-64
2023/10/09 05:22:37;;;;;;;9.23;6.30;;;17.60;96.70;;;;;;10519927;28;20450;-63
2023/10/09 05:27:50;;;;;;;9.35;6.28;;;17.60;96.70;;;;;;10525380;28;20803;-65
2023/10/09 05:32:58;;;;;;;9.38;6.30;;;17.50;96.70;;;;;;10523437;28;20578;-65
2023/10/09 05:38:04;;;;;;;9.33;6.50;;;17.60;96.70;;;;;;10519430;28;20422;-65
2023/10/09 05:43:05;;;;;;;9.55;6.38;;;17.60;96.70;;;;;;10527129;28;20477;-65
2023/10/09 05:48:48;;;;;;;8.55;6.03;;;17.60;96.70;;;;;;10531622;28;20916;-66
2023/10/09 06:04:15;;;;;;;8.75;6.20;;;17.60;96.70;;;;;;10515520;28;20672;-65
2023/10/09 06:14:57;;;;;;;9.00;6.43;;;17.60;96.70;;;;;;10525772;28;21007;-65
2023/10/09 06:19:44;;;;;;;10.02;6.30;;;17.60;96.70;;;;;;10520441;28;20933;-65
2023/10/09 06:30:14;;;;;;;9.10;6.03;;;17.60;96.70;;;;;;10536335;28;20397;-65
2023/10/09 06:35:15;;;;;;;8.93;6.30;;;17.60;96.70;;;;;;10530694;28;20409;-67
2023/10/09 06:45:44;;;;;;;9.10;6.00;;;17.60;96.70;;;;;;10539720;28;20402;-64
2023/10/09 06:51:03;;;;;;;8.98;6.20;;;17.60;96.70;;;;;;10540218;28;20405;-65
2023/10/09 06:56:07;;;;;;;8.80;6.47;;;17.60;96.70;;;;;;10529205;28;20487;-65
2023/10/09 07:01:19;;;;;;;9.03;6.00;;;17.60;96.70;;;;;;10539486;28;20457;-65
2023/10/09 07:06:24;;;;;;;8.77;6.23;;;17.60;96.70;;;;;;10531704;28;20484;-65
2023/10/09 07:11:57;;;;;;;9.20;6.10;;;17.70;96.70;;;;;;10523757;28;20834;-64
2023/10/09 07:22:52;;;;;;;11.90;6.22;;;17.70;96.70;;;;;;10500055;28;20432;-69
2023/10/09 07:27:48;;;;;;;9.40;6.28;;;17.70;97.00;;;;;;10532425;28;20536;-66
2023/10/09 07:32:52;;;;;;;9.23;6.15;;;17.70;97.00;;;;;;10528311;28;20423;-66
2023/10/09 07:37:53;;;;;;;8.37;5.77;;;17.70;96.90;;;;;;10522966;28;20410;-68
2023/10/09 07:43:04;;;;;;;8.40;6.20;;;17.70;96.80;;;;;;10524955;28;20403;-67
2023/10/09 07:48:05;;;;;;;8.73;6.30;;;17.80;96.80;;;;;;10531613;28;20413;-67
2023/10/09 07:53:25;;;;;;;9.37;6.10;;;17.80;96.80;;;;;;10533886;28;20861;-67
2023/10/09 07:58:26;;;;;;;8.55;6.15;;;17.80;96.80;;;;;;10528608;28;20478;-66
2023/10/09 08:03:32;;;;;;;9.00;5.87;;;17.80;96.80;;;;;;10532128;28;20419;-66
2023/10/09 08:13:49;;;;;;;8.53;6.03;;;17.80;96.80;;;;;;10525691;28;20412;-66
2023/10/09 08:18:52;;;;;;;14.43;6.78;;;17.90;96.90;;;;;;10528243;28;20441;-69
2023/10/09 08:23:52;;;;;;;11.63;6.57;;;17.90;98.90;;;;;;10526066;28;20393;-69
2023/10/09 08:28:54;;;;;;;14.63;6.55;;;18.00;99.90;;;;;;10506611;28;20945;-72
2023/10/09 08:33:57;;;;;;;13.13;6.70;;;18.00;99.90;;;;;;10509879;28;20773;-69
2023/10/09 08:38:58;;;;;;;14.45;6.68;;;18.00;99.90;;;;;;10534192;28;20414;-68
2023/10/09 08:44:03;;;;;;;15.55;6.55;;;18.00;99.90;;;;;;10524162;28;20403;-67
2023/10/09 08:49:05;;;;;;;15.27;6.68;;;18.00;99.90;;;;;;10536058;28;20482;-68
2023/10/09 08:54:11;;;;;;;14.70;6.75;;;18.10;99.90;;;;;;10513865;28;20420;-68
2023/10/09 08:59:11;;;;;;;14.97;6.17;;;18.10;99.90;;;;;;10509004;28;20449;-68
2023/10/09 09:04:38;;;;;;;16.00;6.28;;;18.20;99.90;;;;;;10521760;28;20430;-69
2023/10/09 09:10:03;;;;;;;16.48;6.15;;;18.10;99.90;;;;;;10528924;28;20420;-69
2023/10/09 09:15:18;;;;;;;15.73;6.60;;;18.10;99.90;;;;;;10532307;28;20439;-67
2023/10/09 09:20:23;;;;;;;14.43;6.22;;;18.10;99.90;;;;;;10525240;28;20434;-68
2023/10/09 09:25:25;;;;;;;13.40;6.07;;;18.10;99.90;;;;;;10525083;28;20770;-68
2023/10/09 09:30:33;;;;;;;14.18;5.75;;;18.10;99.90;;;;;;10529185;28;20410;-68
2023/10/09 09:35:33;;;;;;;15.55;5.90;;;18.10;99.90;;;;;;10504045;28;20867;-68
2023/10/09 09:40:41;;;;;;;14.57;5.60;;;18.10;99.90;;;;;;10531155;28;20528;-68
2023/10/09 09:45:48;;;;;;;15.27;5.88;;;18.20;99.90;;;;;;10531311;28;20751;-68
2023/10/09 09:50:54;;;;;;;12.23;5.32;;;18.20;99.90;;;;;;10531117;28;20907;-68
2023/10/09 09:55:57;;;;;;;12.43;5.38;;;18.20;99.90;;;;;;10525623;28;20521;-68
2023/10/09 10:01:16;;;;;;;15.30;5.23;;;18.20;99.90;;;;;;10530505;28;20918;-68
2023/10/09 10:06:21;;;;;;;11.80;5.25;;;18.20;99.90;;;;;;10515412;28;20833;-68
2023/10/09 10:11:42;;;;;;;12.85;5.13;;;18.20;99.90;;;;;;10523884;28;20440;-69
2023/10/09 10:17:16;;;;;;;13.40;5.33;;;18.20;99.90;;;;;;10519368;28;20408;-67
2023/10/09 10:22:27;;;;;;;15.73;5.55;;;18.20;99.90;;;;;;10536771;28;20561;-69
2023/10/09 10:28:00;;;;;;;14.70;5.43;;;18.20;99.90;;;;;;10531543;28;20392;-69
2023/10/09 10:33:09;;;;;;;15.35;5.70;;;18.30;99.90;;;;;;10519331;28;20845;-69
2023/10/09 10:38:32;;;;;;;14.32;5.60;;;18.40;99.90;;;;;;10534453;28;20449;-69
2023/10/09 10:43:54;;;;;;;11.73;5.07;;;18.50;99.90;;;;;;10509973;28;20433;-68
2023/10/09 10:49:15;;;;;;;12.63;4.77;;;18.50;99.90;;;;;;10515150;28;20438;-71
2023/10/09 10:54:45;;;;;;;15.73;5.57;;;18.60;99.90;;;;;;10530493;28;20417;-69
2023/10/09 10:59:49;;;;;;;12.05;4.85;;;18.60;99.90;;;;;;10533099;28;20903;-70
2023/10/09 11:05:14;;;;;;;10.70;4.70;;;18.60;99.90;;;;;;10525749;28;20399;-70
2023/10/09 11:10:14;;;;;;;11.35;4.32;;;18.70;99.90;;;;;;10522817;28;20421;-70
2023/10/09 11:15:44;;;;;;;11.60;5.03;;;18.70;99.90;;;;;;10511010;28;20400;-69
2023/10/09 11:21:40;;;;;;;12.23;4.70;;;18.80;99.90;;;;;;10534395;28;20460;-70
2023/10/09 11:26:25;;;;;;;12.35;4.93;;;18.80;99.90;;;;;;10525700;28;20409;-69
2023/10/09 11:31:26;;;;;;;14.30;5.65;;;18.80;99.90;;;;;;10531597;28;20945;-70
2023/10/09 11:36:32;;;;;;;12.10;5.10;;;18.70;99.90;;;;;;10534208;28;20407;-69
2023/10/09 11:41:41;;;;;;;14.13;5.32;;;18.70;99.90;;;;;;10511304;28;20417;-70
2023/10/09 11:47:22;;;;;;;12.23;5.72;;;18.90;99.90;;;;;;10536183;28;20808;-70
2023/10/09 11:52:35;;;;;;;12.40;5.30;;;19.00;99.90;;;;;;10519876;28;20986;-69
2023/10/09 11:57:35;;;;;;;12.25;5.55;;;19.10;99.90;;;;;;10515348;28;20421;-70
2023/10/09 12:02:43;;;;;;;13.75;4.93;;;19.20;99.90;;;;;;10534669;28;20478;-70
2023/10/09 12:07:54;;;;;;;10.90;4.87;;;19.30;99.90;;;;;;10533486;28;20901;-71
2023/10/09 12:12:57;;;;;;;11.63;4.30;;;19.40;99.90;;;;;;10529058;28;20487;-71
2023/10/09 12:17:58;;;;;;;10.97;4.30;;;19.40;99.90;;;;;;10528430;28;20409;-69
2023/10/09 12:23:00;;;;;;;11.03;4.27;;;19.40;99.90;;;;;;10514911;28;20886;-69
2023/10/09 12:28:02;;;;;;;12.57;4.07;;;19.30;99.90;;;;;;10509905;28;20408;-69
2023/10/09 12:33:03;;;;;;;9.70;4.40;;;19.30;99.90;;;;;;10515453;28;20681;-69
2023/10/09 12:38:09;;;;;;;9.50;3.80;;;19.40;99.90;;;;;;10522471;28;20544;-70
2023/10/09 12:43:17;;;;;;;7.83;3.30;;;19.00;99.90;;;;;;10510323;28;20429;-69
2023/10/09 12:48:17;;;;;;;7.90;3.03;;;19.50;99.90;;;;;;10535802;28;20396;-69
2023/10/09 12:53:18;;;;;;;8.53;3.00;;;19.60;99.90;;;;;;10537205;28;20408;-69
2023/10/09 12:58:19;;;;;;;7.33;3.17;;;19.60;99.90;;;;;;10534113;28;21171;-71
2023/10/09 13:03:21;;;;;;;6.93;2.90;;;18.70;99.90;;;;;;10505999;28;20836;-72
2023/10/09 13:08:23;;;;;;;7.53;3.13;;;19.50;99.90;;;;;;10509932;28;20434;-71
2023/10/09 13:13:39;;;;;;;7.75;3.00;;;19.50;99.90;;;;;;10523554;28;20434;-71
2023/10/09 13:18:47;;;;;;;9.53;3.90;;;19.40;99.90;;;;;;10527060;28;20457;-68
2023/10/09 13:23:49;;;;;;;8.73;3.97;;;19.40;99.90;;;;;;10524771;28;20410;-71
2023/10/09 13:28:52;;;;;;;10.68;3.55;;;19.40;99.90;;;;;;10525310;28;20689;-71
2023/10/09 13:33:56;;;;;;;8.90;3.50;;;19.40;99.90;;;;;;10525778;28;20413;-71
2023/10/09 13:39:24;;;;;;;9.23;3.40;;;19.40;99.90;;;;;;10525412;28;20490;-73
2023/10/09 13:44:31;;;;;;;10.33;3.93;;;19.40;99.90;;;;;;10529895;28;20411;-70
2023/10/09 13:49:33;;;;;;;10.77;4.40;;;19.30;99.90;;;;;;10516446;28;20403;-69
2023/10/09 13:59:35;;;;;;;10.17;4.17;;;19.30;99.90;;;;;;10532831;28;20522;-69
2023/10/09 14:04:36;;;;;;;7.25;3.80;;;19.30;99.90;;;;;;10536506;28;20757;-69
2023/10/09 14:09:45;;;;;;;6.97;3.60;;;19.30;99.90;;;;;;10495806;28;20419;-69
2023/10/09 14:14:53;;;;;;;7.87;3.50;;;19.30;99.90;;;;;;10512506;28;20392;-69
2023/10/09 14:20:00;;;;;;;10.18;3.97;;;19.30;99.90;;;;;;10534309;28;20417;-69
2023/10/09 14:25:01;;;;;;;6.57;3.28;;;19.30;99.90;;;;;;10516660;28;20413;-70
2023/10/09 14:30:12;;;;;;;6.25;3.50;;;19.30;99.90;;;;;;10524891;28;20431;-69
2023/10/09 14:35:13;;;;;;;6.53;3.67;;;19.30;99.90;;;;;;10529065;28;20445;-69
2023/10/09 14:40:20;;;;;;;9.57;3.80;;;19.30;99.90;;;;;;10530741;28;20434;-75
2023/10/09 14:45:21;;;;;;;8.17;3.90;;;19.20;99.90;;;;;;10524133;28;20432;-69
2023/10/09 14:50:22;;;;;;;7.30;3.60;;;19.20;99.90;;;;;;10536216;28;20436;-69
2023/10/09 14:55:28;;;;;;;7.57;3.80;;;19.30;99.90;;;;;;10535909;28;20455;-69
2023/10/09 15:00:33;;;;;;;7.22;3.65;;;19.30;99.90;;;;;;10524553;28;20947;-69
2023/10/09 15:05:34;;;;;;;8.55;3.70;;;19.30;99.90;;;;;;10523747;28;20493;-68
2023/10/09 15:10:36;;;;;;;7.05;3.45;;;19.30;99.90;;;;;;10532881;28;20415;-68
2023/10/09 15:15:40;;;;;;;7.55;3.83;;;19.30;99.90;;;;;;10532631;28;20400;-69
2023/10/09 15:20:41;;;;;;;8.07;3.80;;;19.30;99.90;;;;;;10537004;28;20411;-70
2023/10/09 15:25:45;;;;;;;6.55;3.63;;;19.30;99.90;;;;;;10531175;28;20779;-69
2023/10/09 15:30:47;;;;;;;7.10;3.70;;;19.30;99.90;;;;;;10510174;28;20402;-68
2023/10/09 15:35:49;;;;;;;7.45;3.83;;;19.20;99.90;;;;;;10534097;28;20406;-69
2023/10/09 15:40:50;;;;;;;8.73;4.20;;;19.30;99.90;;;;;;10536587;28;20494;-74
2023/10/09 15:45:50;;;;;;;11.43;4.47;;;19.20;99.90;;;;;;10510075;28;20405;-69
2023/10/09 15:50:51;;;;;;;8.43;4.33;;;19.10;99.90;;;;;;10532431;28;20415;-68
2023/10/09 15:55:57;;;;;;;9.55;4.45;;;19.10;99.90;;;;;;10534196;28;20400;-69
2023/10/09 16:00:59;;;;;;;7.90;4.27;;;19.10;99.90;;;;;;10527916;28;20741;-69
2023/10/09 16:06:00;;;;;;;10.63;4.43;;;19.20;99.90;;;;;;10528712;28;20453;-66
2023/10/09 16:11:01;;;;;;;9.45;4.07;;;19.20;99.90;;;;;;10528951;28;20496;-67
2023/10/09 16:16:01;;;;;;;9.90;4.10;;;19.20;99.90;;;;;;10533940;28;20403;-66
2023/10/09 16:21:06;;;;;;;10.02;4.18;;;19.20;99.90;;;;;;10524828;28;20487;-67
2023/10/09 16:26:07;;;;;;;9.48;4.60;;;19.20;99.90;;;;;;10521525;28;20496;-67
2023/10/09 16:31:13;;;;;;;10.73;4.50;;;20.20;99.90;;;;;;10529144;28;20429;-67
2023/10/09 16:36:15;;;;;;;11.23;4.47;;;19.10;99.90;;;;;;10532686;28;20774;-66
2023/10/09 16:41:16;;;;;;;9.48;4.32;;;19.10;99.90;;;;;;10525985;28;20449;-67
2023/10/09 16:46:17;;;;;;;7.43;4.45;;;19.10;99.90;;;;;;10527983;28;20834;-67
2023/10/09 16:51:21;;;;;;;9.53;4.50;;;19.10;99.90;;;;;;10537752;28;20400;-67
2023/10/09 16:56:22;;;;;;;8.15;4.30;;;19.10;99.90;;;;;;10533756;28;20404;-67
2023/10/09 17:01:27;;;;;;;10.30;4.68;;;19.10;99.90;;;;;;10510856;28;20416;-68
2023/10/09 17:06:28;;;;;;;6.80;4.60;;;18.80;99.90;;;;;;10526756;28;20453;-66
2023/10/09 17:11:29;;;;;;;6.50;4.20;;;19.10;99.90;;;;;;10529663;28;20430;-67
2023/10/09 17:16:30;;;;;;;8.33;4.07;;;19.10;99.90;;;;;;10512290;28;20413;-64
2023/10/09 17:21:35;;;;;;;9.02;4.60;;;19.10;99.90;;;;;;10519894;28;20506;-65
2023/10/09 17:26:38;;;;;;;6.82;4.38;;;19.10;99.90;;;;;;10530447;28;20457;-66
2023/10/09 17:31:39;;;;;;;7.50;4.70;;;19.10;99.90;;;;;;10530607;28;20408;-65
2023/10/09 17:36:39;;;;;;;6.70;4.40;;;19.10;99.90;;;;;;10522187;28;20403;-66
2023/10/09 17:41:40;;;;;;;7.17;4.07;;;19.10;99.90;;;;;;10520785;28;20413;-67
2023/10/09 17:46:41;;;;;;;8.53;4.20;;;19.10;99.90;;;;;;10521995;28;20440;-69
2023/10/09 17:51:42;;;;;;;7.85;4.82;;;19.10;99.90;;;;;;10528154;28;20406;-67
2023/10/09 17:56:44;;;;;;;7.40;4.65;;;19.10;99.90;;;;;;10506022;28;20421;-66
2023/10/09 18:01:44;;;;;;;9.00;5.23;;;19.10;99.90;;;;;;10520241;28;20497;-67
2023/10/09 18:06:48;;;;;;;7.90;5.10;;;19.00;99.90;;;;;;10506517;28;20409;-68
2023/10/09 18:11:56;;;;;;;6.90;4.90;;;19.10;99.90;;;;;;10511173;28;20425;-68
2023/10/09 18:16:56;;;;;;;7.93;5.20;;;19.00;99.90;;;;;;10513822;28;20492;-68
2023/10/09 18:21:57;;;;;;;6.57;4.75;;;19.00;99.90;;;;;;10507273;28;20420;-68
2023/10/09 18:26:58;;;;;;;7.85;5.30;;;19.00;99.90;;;;;;10523668;28;20485;-67
2023/10/09 18:32:00;;;;;;;8.47;5.47;;;19.00;99.90;;;;;;10518625;28;20406;-67
2023/10/09 18:37:01;;;;;;;9.38;5.85;;;19.00;99.90;;;;;;10518481;28;21089;-68
2023/10/09 18:42:01;;;;;;;7.68;5.30;;;19.00;99.90;;;;;;10525957;28;20824;-66
2023/10/09 18:47:02;;;;;;;7.25;5.28;;;19.00;99.90;;;;;;10506222;28;20481;-67
2023/10/09 18:52:05;;;;;;;8.00;4.90;;;19.00;99.90;;;;;;10522306;28;20398;-67
2023/10/09 18:57:06;;;;;;;7.30;5.13;;;19.00;99.90;;;;;;10515946;28;21136;-67
2023/10/09 19:02:11;;;;;;;6.90;5.10;;;19.00;99.90;;;;;;10501288;28;20470;-67
2023/10/09 19:07:11;;;;;;;8.43;5.50;;;19.00;99.90;;;;;;10528536;28;20548;-68
2023/10/09 19:12:12;;;;;;;9.57;5.17;;;18.90;99.90;;;;;;10523690;28;20633;-68
2023/10/09 19:17:12;;;;;;;8.50;5.50;;;18.90;99.90;;;;;;10529958;28;20887;-67
2023/10/09 19:22:14;;;;;;;7.63;5.10;;;18.90;99.90;;;;;;10525417;28;20414;-67
2023/10/09 19:27:15;;;;;;;7.45;4.93;;;18.90;99.90;;;;;;10522218;28;20419;-67
2023/10/09 19:32:17;;;;;;;8.70;5.57;;;18.90;99.90;;;;;;10516573;28;20738;-67
2023/10/09 19:37:19;;;;;;;7.40;5.00;;;18.90;99.90;;;;;;10527991;28;20490;-69
2023/10/09 19:42:21;;;;;;;9.35;5.00;;;18.90;99.90;;;;;;10516266;28;20549;-68
2023/10/09 19:47:23;;;;;;;7.60;5.00;;;18.90;99.90;;;;;;10523600;28;20402;-66
2023/10/09 19:52:23;;;;;;;8.20;4.97;;;18.90;99.90;;;;;;10522483;28;20475;-68
2023/10/09 19:57:25;;;;;;;6.87;4.70;;;18.90;99.90;;;;;;10519475;28;20563;-68
2023/10/09 20:02:26;;;;;;;9.23;4.65;;;18.90;99.90;;;;;;10520334;28;20416;-67
2023/10/09 20:07:27;;;;;;;6.57;4.57;;;18.80;99.90;;;;;;10510416;28;20779;-68
2023/10/09 20:12:29;;;;;;;8.43;5.20;;;18.90;99.90;;;;;;10519500;28;20399;-67
2023/10/09 20:17:31;;;;;;;7.30;5.00;;;18.80;99.90;;;;;;10520265;28;20412;-68
2023/10/09 20:22:31;;;;;;;7.95;5.15;;;18.80;99.90;;;;;;10526152;28;20413;-68
2023/10/09 20:27:32;;;;;;;7.57;4.83;;;18.80;99.90;;;;;;10521264;28;20388;-67
2023/10/09 20:32:34;;;;;;;8.00;4.78;;;18.80;99.90;;;;;;10514926;28;20407;-66
2023/10/09 20:37:35;;;;;;;7.07;4.88;;;18.80;99.90;;;;;;10519675;28;20522;-67
2023/10/09 20:42:36;;;;;;;7.67;5.07;;;18.90;99.90;;;;;;10501123;28;20412;-67
2023/10/09 20:47:38;;;;;;;7.05;4.93;;;18.80;99.90;;;;;;10525868;28;20404;-67
2023/10/09 20:52:39;;;;;;;7.43;4.93;;;18.80;99.90;;;;;;10524988;28;20402;-66
2023/10/09 20:57:40;;;;;;;7.57;5.27;;;18.80;99.90;;;;;;10522320;28;20424;-67
2023/10/09 21:02:45;;;;;;;7.15;4.68;;;18.80;99.90;;;;;;10504151;28;20895;-66
2023/10/09 21:07:47;;;;;;;7.07;4.30;;;18.80;99.90;;;;;;10507926;28;20903;-67
2023/10/09 21:12:51;;;;;;;6.85;4.70;;;18.80;99.90;;;;;;10526067;28;20484;-67
2023/10/09 21:17:51;;;;;;;6.55;4.20;;;18.80;99.90;;;;;;10516039;28;20480;-67
2023/10/09 21:22:55;;;;;;;5.00;4.03;;;18.80;99.90;;;;;;10509847;28;20482;-67
2023/10/09 21:27:55;;;;;;;6.05;4.00;;;18.80;99.90;;;;;;10510609;28;20470;-68
2023/10/09 21:32:56;;;;;;;6.23;4.67;;;18.80;99.90;;;;;;10506925;28;20406;-68
2023/10/09 21:38:00;;;;;;;6.93;4.30;;;18.80;99.90;;;;;;10527089;28;20414;-68
2023/10/09 21:43:06;;;;;;;6.78;4.15;;;18.80;99.90;;;;;;10515145;28;20417;-67
2023/10/09 21:48:07;;;;;;;5.32;4.07;;;18.80;99.90;;;;;;10519559;28;20402;-67
2023/10/09 21:53:08;;;;;;;5.53;4.07;;;18.80;99.90;;;;;;10514186;28;20467;-68
2023/10/09 21:58:10;;;;;;;5.13;4.17;;;18.80;99.90;;;;;;10526648;28;20411;-67
2023/10/09 22:03:11;;;;;;;6.43;4.18;;;18.80;99.90;;;;;;10530473;28;20805;-67
2023/10/09 22:08:13;;;;;;;5.03;3.67;;;18.80;99.90;;;;;;10533283;28;20411;-68
2023/10/09 22:13:14;;;;;;;5.82;3.97;;;18.80;99.90;;;;;;10535515;28;20429;-68
2023/10/09 22:18:21;;;;;;;6.83;4.27;;;18.80;99.90;;;;;;10524190;28;20487;-67
2023/10/09 22:23:30;;;;;;;6.72;4.22;;;18.80;99.90;;;;;;10534413;28;20916;-68
2023/10/09 22:28:34;;;;;;;5.00;3.70;;;18.70;99.90;;;;;;10524117;28;20417;-68
2023/10/09 22:33:45;;;;;;;5.30;3.88;;;18.70;99.90;;;;;;10535105;28;20462;-67
2023/10/09 22:38:49;;;;;;;5.57;3.70;;;18.70;99.90;;;;;;10529227;28;20980;-67
2023/10/09 22:43:49;;;;;;;5.40;3.90;;;18.70;99.90;;;;;;10529494;28;20400;-67
2023/10/09 22:48:59;;;;;;;6.53;4.00;;;18.70;99.90;;;;;;10540640;28;20403;-65
2023/10/09 22:54:01;;;;;;;5.13;3.60;;;18.70;99.90;;;;;;10535967;28;20895;-67
2023/10/09 22:59:19;;;;;;;5.33;3.67;;;18.70;99.90;;;;;;10535281;28;20409;-68
2023/10/09 23:04:36;;;;;;;4.93;3.70;;;18.70;99.90;;;;;;10519730;28;20402;-67
2023/10/09 23:09:47;;;;;;;4.28;3.53;;;18.70;99.90;;;;;;10541421;28;20919;-67
2023/10/09 23:14:53;;;;;;;4.60;3.50;;;18.70;99.90;;;;;;10549981;28;20434;-68
2023/10/09 23:19:56;;;;;;;6.07;3.85;;;18.70;99.90;;;;;;10527792;28;20456;-68
2023/10/09 23:25:17;;;;;;;4.45;3.25;;;18.70;99.90;;;;;;10540060;28;20386;-67
2023/10/09 23:35:43;;;;;;;5.03;3.60;;;18.70;99.90;;;;;;10533112;28;20403;-66
2023/10/09 23:40:51;;;;;;;5.00;3.30;;;18.70;99.90;;;;;;10514544;28;20468;-65
2023/10/09 23:45:56;;;;;;;5.53;3.30;;;18.70;99.90;;;;;;10542651;28;20408;-67
2023/10/09 23:51:03;;;;;;;4.53;3.20;;;18.70;99.90;;;;;;10536235;28;20425;-67
2023/10/09 23:56:10;;;;;;;5.63;3.60;;;18.60;99.90;;;;;;10536206;28;20406;-68
